Time;durP1;ratioP1;P1;durP2;ratioP2;P2;SDS_P1;SDS_P2;PMS_P1;PMS_P2;Temp;Humidity;BMP_temperature;BMP_pressure;BME280_temperature;BME280_humidity;BME280_pressure;Samples;Min_cycle;Max_cycle;Signal;HPM_P1;HPM_P2
2022/11/24 00:04:44;;;;;;;104.43;43.23;;;;;;;1.93;100.00;100055.06;5146565;56;1143145;-68
2022/11/24 00:09:50;;;;;;;116.50;47.47;;;;;;;1.93;100.00;100048.55;5075716;55;1143088;-71
2022/11/24 00:14:56;;;;;;;111.67;45.80;;;;;;;1.89;100.00;100050.91;5054962;55;1143054;-69
2022/11/24 00:20:01;;;;;;;110.67;46.70;;;;;;;1.86;100.00;100053.20;5100464;56;1143285;-71
2022/11/24 00:25:07;;;;;;;116.45;42.95;;;;;;;1.82;100.00;100048.23;5138761;56;1143022;-68
2022/11/24 00:30:13;;;;;;;114.43;45.60;;;;;;;1.82;100.00;100053.45;5137238;56;1143135;-71
2022/11/24 00:35:19;;;;;;;109.85;44.00;;;;;;;1.82;100.00;100050.84;5125350;56;1143011;-66
2022/11/24 00:40:25;;;;;;;121.40;45.47;;;;;;;1.81;100.00;100058.28;5054717;55;1143354;-68
2022/11/24 00:45:31;;;;;;;103.13;45.60;;;;;;;1.80;100.00;100062.65;5089000;55;1142930;-67
2022/11/24 00:50:37;;;;;;;104.53;43.53;;;;;;;1.78;100.00;100084.03;5133205;55;1143052;-68
2022/11/24 00:55:43;;;;;;;117.63;48.37;;;;;;;1.76;100.00;100085.87;5133299;56;1142960;-68
2022/11/24 01:00:49;;;;;;;107.47;43.90;;;;;;;1.71;100.00;100084.77;5133072;55;1143121;-65
2022/11/24 01:05:55;;;;;;;107.32;45.00;;;;;;;1.69;100.00;100078.79;5147473;56;1142942;-66
2022/11/24 01:11:17;;;;;;;106.30;44.33;;;;;;;1.67;100.00;100079.81;5153409;55;1143075;-69
2022/11/24 01:16:30;;;;;;;111.13;46.37;;;;;;;1.68;100.00;100077.59;5153264;55;1143003;-70
2022/11/24 01:21:36;;;;;;;102.27;43.52;;;;;;;1.69;100.00;100081.85;5152184;56;1143026;-69
2022/11/24 01:26:42;;;;;;;104.63;46.83;;;;;;;1.66;100.00;100082.88;5151799;56;1142974;-69
2022/11/24 01:31:47;;;;;;;110.32;45.92;;;;;;;1.61;100.00;100080.94;5148821;56;1143095;-70
2022/11/24 01:36:53;;;;;;;106.50;43.63;;;;;;;1.54;100.00;100082.13;5141970;56;1143057;-67
2022/11/24 01:42:03;;;;;;;100.57;41.90;;;;;;;1.53;100.00;100075.22;5132881;55;1143088;-69
2022/11/24 01:47:21;;;;;;;105.33;44.23;;;;;;;1.53;100.00;100075.22;5103654;56;1142968;-69
2022/11/24 01:52:43;;;;;;;122.63;47.77;;;;;;;1.51;100.00;100082.75;5054866;55;1143190;-69
2022/11/24 01:57:59;;;;;;;110.40;47.48;;;;;;;1.51;100.00;100087.97;5055749;55;1143001;-67
2022/11/24 02:03:05;;;;;;;102.23;44.27;;;;;;;1.54;100.00;100092.55;5068525;56;1143183;-70
2022/11/24 02:08:15;;;;;;;106.10;44.77;;;;;;;1.56;100.00;100097.23;5103933;56;1142989;-71
2022/11/24 02:13:22;;;;;;;117.30;44.87;;;;;;;1.59;100.00;100094.95;5056141;55;1142996;-68
2022/11/24 02:18:28;;;;;;;107.67;46.73;;;;;;;1.58;100.00;100102.38;5074850;55;1142888;-70
2022/11/24 02:23:44;;;;;;;119.50;48.13;;;;;;;1.57;100.00;100104.59;5137556;56;1143024;-68
2022/11/24 02:28:51;;;;;;;110.42;45.92;;;;;;;1.60;100.00;100111.82;5135290;56;1143123;-67
2022/11/24 02:33:57;;;;;;;121.00;47.63;;;;;;;1.67;100.00;100108.02;5048888;57;1142874;-69
2022/11/24 02:39:03;;;;;;;116.67;47.50;;;;;;;1.68;100.00;100104.47;5036952;57;1142847;-68
2022/11/24 02:44:09;;;;;;;124.72;48.85;;;;;;;1.63;100.00;100096.05;5090706;56;1142811;-68
2022/11/24 02:49:15;;;;;;;117.77;48.67;;;;;;;1.64;100.00;100097.73;5131426;56;1143226;-67
2022/11/24 02:54:20;;;;;;;128.00;46.53;;;;;;;1.67;100.00;100106.72;5131507;56;1142827;-70
2022/11/24 02:59:27;;;;;;;129.93;51.40;;;;;;;1.68;100.00;100105.77;5131475;56;1142994;-69
2022/11/24 03:04:33;;;;;;;136.35;52.55;;;;;;;1.69;100.00;100100.09;5109220;56;1142957;-70
2022/11/24 03:09:39;;;;;;;128.87;48.45;;;;;;;1.74;100.00;100096.83;5108798;56;1143024;-67
2022/11/24 03:14:45;;;;;;;114.10;47.10;;;;;;;1.74;100.00;100093.77;5139619;56;1143070;-68
2022/11/24 03:19:50;;;;;;;122.13;49.20;;;;;;;1.78;100.00;100094.46;5137346;56;1143495;-67
2022/11/24 03:24:57;;;;;;;127.97;52.20;;;;;;;1.76;100.00;100093.69;5049333;57;1142842;-68
2022/11/24 03:30:04;;;;;;;119.33;49.00;;;;;;;1.71;100.00;100100.42;5049060;57;1142855;-68
2022/11/24 03:35:09;;;;;;;113.70;46.17;;;;;;;1.72;100.00;100109.09;4979105;56;1143173;-71
2022/11/24 03:40:16;;;;;;;114.00;46.53;;;;;;;1.74;100.00;100105.95;5139325;56;1143069;-68
2022/11/24 03:45:22;;;;;;;110.90;48.13;;;;;;;1.76;100.00;100100.20;5139274;56;1142997;-69
2022/11/24 03:50:28;;;;;;;122.07;47.60;;;;;;;1.76;100.00;100102.81;5139390;56;1143213;-69
2022/11/24 03:55:35;;;;;;;116.14;49.10;;;;;;;1.70;100.00;100103.09;5158763;56;1143124;-70
2022/11/24 04:00:41;;;;;;;122.43;49.30;;;;;;;1.72;100.00;100110.39;5124392;55;1143042;-71
2022/11/24 04:05:47;;;;;;;110.40;45.07;;;;;;;1.79;100.00;100107.04;5081548;56;1143090;-67
2022/11/24 04:10:54;;;;;;;111.20;46.10;;;;;;;1.80;100.00;100118.70;5135876;56;1142951;-69
2022/11/24 04:16:02;;;;;;;107.13;44.57;;;;;;;1.82;100.00;100118.17;5091926;56;1143072;-70
2022/11/24 04:21:08;;;;;;;112.77;46.23;;;;;;;1.79;100.00;100126.59;5137870;56;1143253;-69
2022/11/24 04:26:14;;;;;;;112.13;45.80;;;;;;;1.82;100.00;100134.27;5139171;56;1143107;-67
2022/11/24 04:31:20;;;;;;;117.17;47.70;;;;;;;1.88;100.00;100136.57;5138990;56;1142971;-69
2022/11/24 04:36:26;;;;;;;121.10;52.37;;;;;;;1.89;100.00;100141.72;5139251;56;1143049;-68
2022/11/24 04:41:32;;;;;;;126.80;53.97;;;;;;;1.89;100.00;100143.48;5139304;56;1142944;-67
2022/11/24 04:46:38;;;;;;;117.77;45.97;;;;;;;1.88;100.00;100147.00;5138874;56;1143022;-70
2022/11/24 04:51:45;;;;;;;113.47;47.20;;;;;;;1.88;100.00;100154.36;5141191;56;1142982;-70
2022/11/24 04:56:53;;;;;;;122.50;47.05;;;;;;;1.88;100.00;100162.19;5107763;55;1143213;-68
2022/11/24 05:01:58;;;;;;;125.80;50.53;;;;;;;1.90;100.00;100170.79;5096543;56;1143208;-68
2022/11/24 05:07:05;;;;;;;113.50;44.83;;;;;;;1.90;100.00;100173.85;5128560;56;1143500;-70
2022/11/24 05:12:10;;;;;;;123.58;47.38;;;;;;;1.87;100.00;100174.84;5090562;55;1142980;-66
2022/11/24 05:17:16;;;;;;;127.50;52.27;;;;;;;1.84;100.00;100175.44;5132898;54;1143040;-68
2022/11/24 05:22:21;;;;;;;133.47;54.83;;;;;;;1.82;100.00;100172.08;5149263;55;1143287;-67
2022/11/24 05:27:27;;;;;;;126.47;49.70;;;;;;;1.80;100.00;100175.22;5149162;56;1143311;-67
2022/11/24 05:32:33;;;;;;;119.17;47.60;;;;;;;1.77;100.00;100173.59;5138138;55;1143430;-68
2022/11/24 05:37:39;;;;;;;123.50;48.77;;;;;;;1.76;100.00;100177.11;5120326;55;1150150;-67
2022/11/24 05:42:44;;;;;;;125.00;48.90;;;;;;;1.73;100.00;100184.61;5150494;56;1142971;-69
2022/11/24 05:47:52;;;;;;;122.23;51.60;;;;;;;1.73;100.00;100183.31;5150414;56;1143281;-70
2022/11/24 05:52:59;;;;;;;130.67;52.38;;;;;;;1.73;100.00;100178.55;5125353;56;1143223;-70
2022/11/24 05:58:07;;;;;;;125.73;49.23;;;;;;;1.72;100.00;100175.10;5061859;55;1143097;-65
2022/11/24 06:03:12;;;;;;;141.37;55.80;;;;;;;1.70;100.00;100184.75;5098248;56;1143293;-65
2022/11/24 06:08:20;;;;;;;125.70;48.73;;;;;;;1.66;100.00;100186.29;5092632;55;1143002;-71
2022/11/24 06:13:26;;;;;;;110.17;46.33;;;;;;;1.69;100.00;100200.46;5139044;56;1143154;-70
2022/11/24 06:18:31;;;;;;;137.33;51.43;;;;;;;1.72;100.00;100199.02;5118687;56;1143135;-70
2022/11/24 06:23:37;;;;;;;122.03;50.37;;;;;;;1.73;100.00;100215.90;5054842;57;1143186;-68
2022/11/24 06:28:43;;;;;;;126.47;48.60;;;;;;;1.67;100.00;100212.29;5054336;57;1142939;-68
2022/11/24 06:33:49;;;;;;;112.63;47.17;;;;;;;1.65;100.00;100223.70;5054526;57;1143002;-69
2022/11/24 06:38:55;;;;;;;116.67;45.12;;;;;;;1.67;100.00;100240.12;5124340;56;1143014;-67
2022/11/24 06:44:05;;;;;;;117.70;45.20;;;;;;;1.65;100.00;100244.09;5112346;55;1143184;-70
2022/11/24 06:49:11;;;;;;;213.63;106.77;;;;;;;1.63;100.00;100243.77;5076778;56;1142871;-67
2022/11/24 06:54:20;;;;;;;109.00;42.23;;;;;;;1.65;100.00;100249.30;5049491;57;1145212;-67
2022/11/24 06:59:26;;;;;;;102.87;42.60;;;;;;;1.68;100.00;100263.48;5103699;54;1143086;-68
2022/11/24 07:04:32;;;;;;;108.50;42.30;;;;;;;1.69;100.00;100272.14;5148700;55;1143091;-69
2022/11/24 07:09:38;;;;;;;108.90;43.90;;;;;;;1.71;100.00;100270.32;5093789;56;1143060;-69
2022/11/24 07:14:43;;;;;;;114.10;47.73;;;;;;;1.70;100.00;100267.33;5069405;57;1143350;-68
2022/11/24 07:19:49;;;;;;;120.05;46.20;;;;;;;1.66;100.00;100265.34;5150107;56;1142842;-65
2022/11/24 07:24:54;;;;;;;124.82;50.48;;;;;;;1.65;100.00;100266.70;5154107;56;1142903;-73
2022/11/24 07:30:01;;;;;;;131.50;48.23;;;;;;;1.65;100.00;100262.34;5154041;56;1142881;-70
2022/11/24 07:35:07;;;;;;;128.53;48.17;;;;;;;1.65;100.00;100266.25;5150642;55;1142897;-69
2022/11/24 07:40:13;;;;;;;117.08;47.48;;;;;;;1.62;100.00;100272.05;5144635;56;1143109;-70
2022/11/24 07:45:19;;;;;;;125.47;48.77;;;;;;;1.61;100.00;100270.36;5144436;55;1143022;-65
2022/11/24 07:50:24;;;;;;;128.18;47.25;;;;;;;1.62;100.00;100272.05;5144468;56;1143011;-68
2022/11/24 07:55:31;;;;;;;137.97;49.20;;;;;;;1.58;100.00;100283.06;5084557;56;1143035;-68
2022/11/24 08:00:36;;;;;;;137.00;48.60;;;;;;;1.57;100.00;100281.83;5088452;56;1142917;-71
2022/11/24 08:05:42;;;;;;;143.17;50.77;;;;;;;1.58;100.00;100279.16;5038659;57;1143127;-70
2022/11/24 08:10:48;;;;;;;134.50;51.53;;;;;;;1.58;100.00;100283.52;5137730;56;1142968;-71
2022/11/24 08:15:54;;;;;;;137.10;48.83;;;;;;;1.54;100.00;100281.50;5138473;56;1142922;-67
2022/11/24 08:21:00;;;;;;;140.40;50.93;;;;;;;1.55;100.00;100277.98;5138322;56;1142975;-66
2022/11/24 08:26:16;;;;;;;124.90;47.67;;;;;;;1.57;100.00;100286.58;5112694;55;1143059;-70
2022/11/24 08:31:25;;;;;;;122.43;47.43;;;;;;;1.61;100.00;100294.66;5054436;56;1143177;-68
2022/11/24 08:36:31;;;;;;;127.87;48.87;;;;;;;1.63;100.00;100299.36;5085677;56;1143415;-68
2022/11/24 08:41:37;;;;;;;122.77;46.43;;;;;;;1.61;100.00;100299.88;5138797;56;1143043;-66
2022/11/24 08:46:43;;;;;;;127.07;48.57;;;;;;;1.62;100.00;100296.36;5138813;56;1142975;-68
2022/11/24 08:51:50;;;;;;;137.20;49.00;;;;;;;1.61;100.00;100309.45;5138867;56;1143048;-69
2022/11/24 08:56:56;;;;;;;138.82;47.48;;;;;;;1.61;100.00;100309.45;5133252;55;1143283;-69
2022/11/24 09:02:01;;;;;;;142.17;57.50;;;;;;;1.66;100.00;100312.72;5110352;56;1142878;-66
2022/11/24 09:07:07;;;;;;;133.10;48.40;;;;;;;1.68;100.00;100317.41;5148776;55;1143039;-70
2022/11/24 09:12:13;;;;;;;142.18;51.50;;;;;;;1.65;100.00;100335.33;5132224;56;1143233;-70
2022/11/24 09:17:18;;;;;;;140.50;49.80;;;;;;;1.69;100.00;100339.47;5132502;56;1142999;-66
2022/11/24 09:22:24;;;;;;;144.77;49.10;;;;;;;1.71;100.00;100328.98;5153180;56;1143185;-69
2022/11/24 09:27:29;;;;;;;156.73;67.47;;;;;;;1.74;100.00;100327.09;5151102;56;1143370;-70
2022/11/24 09:32:36;;;;;;;185.07;82.40;;;;;;;1.86;100.00;100334.81;5152800;56;1143056;-68
2022/11/24 09:37:43;;;;;;;174.93;61.27;;;;;;;1.83;100.00;100329.76;5103582;56;1143005;-68
2022/11/24 09:43:05;;;;;;;181.32;58.55;;;;;;;1.78;100.00;100336.08;5067765;56;1143047;-70
2022/11/24 09:48:30;;;;;;;136.77;49.50;;;;;;;1.76;100.00;100337.00;5067763;56;1142993;-67
2022/11/24 09:53:49;;;;;;;127.17;49.33;;;;;;;1.80;100.00;100325.98;5101439;55;1142993;-69
2022/11/24 09:59:17;;;;;;;132.52;50.28;;;;;;;1.79;100.00;100326.89;5135692;56;1143143;-67
2022/11/24 10:04:39;;;;;;;133.93;52.50;;;;;;;1.80;100.00;100323.83;5084967;55;1143296;-68
2022/11/24 10:10:21;;;;;;;129.63;48.45;;;;;;;1.87;100.00;100314.80;5065794;56;1143002;-65
2022/11/24 10:16:18;;;;;;;134.07;51.27;;;;;;;1.92;100.00;100315.45;5064491;56;1142887;-66
2022/11/24 10:22:07;;;;;;;128.70;48.50;;;;;;;1.96;100.00;100324.38;5135667;56;1143340;-70
2022/11/24 10:27:32;;;;;;;113.47;41.87;;;;;;;1.89;100.00;100329.47;5145092;56;1143058;-69
2022/11/24 10:32:42;;;;;;;134.70;49.83;;;;;;;1.90;100.00;100336.38;5150869;56;1143050;-67
2022/11/24 10:38:07;;;;;;;169.80;70.40;;;;;;;1.86;100.00;100341.78;5151275;55;1144608;-72
2022/11/24 10:43:13;;;;;;;131.07;51.33;;;;;;;1.88;100.00;100342.56;5151471;56;1142826;-71
2022/11/24 10:48:25;;;;;;;121.13;44.70;;;;;;;1.91;100.00;100347.20;5149730;56;1142966;-68
2022/11/24 10:53:34;;;;;;;140.97;50.93;;;;;;;1.95;100.00;100357.05;5146957;56;1142895;-70
2022/11/24 10:58:40;;;;;;;146.22;53.85;;;;;;;1.96;100.00;100352.22;5116204;55;1143018;-71
2022/11/24 11:03:49;;;;;;;120.00;46.13;;;;;;;1.96;100.00;100346.55;5125932;55;1146723;-69
2022/11/24 11:09:12;;;;;;;126.95;44.65;;;;;;;1.95;100.00;100344.85;5114664;56;1142980;-68
2022/11/24 11:14:40;;;;;;;120.27;48.13;;;;;;;1.96;100.00;100342.63;5056009;57;1143060;-70
2022/11/24 11:19:44;;;;;;;123.03;48.10;;;;;;;1.95;100.00;100346.61;5101584;56;1143008;-69
2022/11/24 11:25:03;;;;;;;108.73;45.83;;;;;;;2.01;100.00;100347.62;5131650;56;1191611;-66
2022/11/24 11:30:24;;;;;;;134.87;52.17;;;;;;;2.03;100.00;100349.70;4969057;56;1258589;-66
2022/11/24 11:35:33;;;;;;;115.97;41.80;;;;;;;2.04;100.00;100350.09;4970030;55;1142937;-67
2022/11/24 11:40:41;;;;;;;119.35;43.28;;;;;;;2.02;100.00;100359.29;4964231;58;1142974;-68
2022/11/24 11:45:50;;;;;;;107.55;40.52;;;;;;;1.99;100.00;100355.97;4966008;57;1143099;-68
2022/11/24 11:51:19;;;;;;;99.75;33.58;;;;;;;2.01;100.00;100361.51;4969078;57;1143202;-68
2022/11/24 11:56:30;;;;;;;103.72;37.35;;;;;;;2.01;100.00;100348.92;4820195;60;1140958;-68
2022/11/24 12:02:19;;;;;;;132.17;45.23;;;;;;;1.98;100.00;100353.84;4805679;60;1143006;-66
2022/11/24 12:07:38;;;;;;;135.17;48.70;;;;;;;2.00;100.00;100351.14;4746539;60;1143080;-67
2022/11/24 12:13:16;;;;;;;131.33;48.90;;;;;;;2.09;100.00;100342.47;4794065;57;1143156;-67
2022/11/24 12:18:44;;;;;;;133.63;44.73;;;;;;;2.10;100.00;100339.39;4819428;58;1143189;-67
2022/11/24 12:24:00;;;;;;;98.25;34.00;;;;;;;2.09;100.00;100338.55;4854609;58;1143055;-66
2022/11/24 12:29:29;;;;;;;119.33;44.37;;;;;;;2.10;100.00;100346.77;4804965;59;1140937;-68
2022/11/24 12:35:07;;;;;;;111.07;40.27;;;;;;;2.15;100.00;100360.88;4998669;56;1143196;-66
2022/11/24 12:40:43;;;;;;;122.07;43.70;;;;;;;2.16;100.00;100368.25;5024200;56;1142967;-65
2022/11/24 12:46:10;;;;;;;108.50;40.20;;;;;;;2.11;100.00;100373.70;5008919;57;1152547;-65
2022/11/24 12:51:23;;;;;;;113.17;42.27;;;;;;;2.11;100.00;100371.09;4984766;57;1142847;-67
2022/11/24 12:56:39;;;;;;;121.55;47.40;;;;;;;2.13;100.00;100367.11;4985269;56;1143089;-66
2022/11/24 13:01:59;;;;;;;143.10;52.53;;;;;;;2.10;100.00;100366.33;4977443;57;1142847;-66
2022/11/24 13:07:14;;;;;;;137.63;52.00;;;;;;;2.12;100.00;100366.27;5085415;56;1142921;-64
2022/11/24 13:12:20;;;;;;;142.35;51.55;;;;;;;2.14;100.00;100364.89;5100606;55;1143168;-67
2022/11/24 13:17:33;;;;;;;147.97;56.90;;;;;;;2.13;100.00;100368.41;5056727;55;1143006;-65
2022/11/24 13:22:38;;;;;;;;;;;;;;;2.15;100.00;100370.47;5060589;56;1142986;-65
2022/11/24 13:27:49;;;;;;;142.47;52.70;;;;;;;2.21;100.00;100374.97;5119026;55;974094;-64
2022/11/24 13:33:14;;;;;;;144.77;51.73;;;;;;;2.31;100.00;100375.38;5139202;56;1140905;-67
2022/11/24 13:38:49;;;;;;;138.13;50.23;;;;;;;2.32;100.00;100381.84;5115548;56;1142992;-65
2022/11/24 13:44:20;;;;;;;139.85;51.40;;;;;;;2.33;100.00;100391.36;5138915;56;1143187;-64
2022/11/24 13:49:41;;;;;;;149.10;54.83;;;;;;;2.32;100.00;100390.13;5137008;55;1145133;-64
2022/11/24 13:54:47;;;;;;;282.03;102.90;;;;;;;2.35;100.00;100386.07;5139731;56;1143313;-63
2022/11/24 13:59:58;;;;;;;147.30;53.13;;;;;;;2.35;100.00;100386.07;5138219;55;1145351;-66
2022/11/24 14:05:04;;;;;;;167.33;54.23;;;;;;;2.32;100.00;100392.27;5092540;56;1143227;-64
2022/11/24 14:10:20;;;;;;;149.83;52.20;;;;;;;2.29;100.00;100399.42;5137634;56;1143124;-66
2022/11/24 14:15:34;;;;;;;133.60;47.13;;;;;;;2.27;100.00;100403.40;5136680;55;1143043;-65
2022/11/24 14:20:37;;;;;;;128.40;46.87;;;;;;;2.27;100.00;100407.31;5120167;56;1142738;-64
2022/11/24 14:25:49;;;;;;;127.23;47.97;;;;;;;2.27;100.00;100411.69;5139397;56;1143221;-67
2022/11/24 14:31:10;;;;;;;143.93;53.33;;;;;;;2.22;100.00;100415.80;5139630;56;1142996;-64
2022/11/24 14:36:17;;;;;;;150.70;55.13;;;;;;;2.22;100.00;100414.49;5113351;56;1142806;-67
2022/11/24 14:41:27;;;;;;;133.55;51.00;;;;;;;2.26;100.00;100417.36;5053351;56;1142940;-64
2022/11/24 14:46:33;;;;;;;150.60;55.30;;;;;;;2.29;100.00;100418.98;5053245;56;1144924;-67
2022/11/24 14:51:42;;;;;;;130.40;46.10;;;;;;;2.32;100.00;100424.89;5053626;55;1142895;-65
2022/11/24 14:57:06;;;;;;;121.07;47.70;;;;;;;2.27;100.00;100425.58;5087964;56;1143076;-64
2022/11/24 15:02:48;;;;;;;;;;;;;;;2.25;100.00;100429.17;5132507;56;1143141;-65
2022/11/24 15:07:54;;;;;;;154.17;54.77;;;;;;;2.25;100.00;100440.91;5112491;55;974107;-63
2022/11/24 15:13:03;;;;;;;195.47;79.00;;;;;;;2.29;100.00;100438.07;5230677;55;1141070;-66
2022/11/24 15:18:25;;;;;;;154.97;60.50;;;;;;;2.32;100.00;100436.64;5142414;55;1143051;-66
2022/11/24 15:23:33;;;;;;;158.70;60.53;;;;;;;2.41;100.00;100438.00;5024780;57;1142936;-64
2022/11/24 15:28:40;;;;;;;167.63;58.90;;;;;;;2.40;100.00;100443.68;5097176;55;1143000;-70
2022/11/24 15:33:47;;;;;;;155.32;56.48;;;;;;;2.35;100.00;100443.03;5167912;56;1143024;-67
2022/11/24 15:38:53;;;;;;;149.40;53.15;;;;;;;2.43;100.00;100455.30;5134831;56;1143060;-67
2022/11/24 15:43:59;;;;;;;156.32;58.80;;;;;;;2.56;100.00;100463.87;5149500;56;1145120;-69
2022/11/24 15:49:05;;;;;;;184.67;69.47;;;;;;;2.67;100.00;100469.44;5136858;55;1142972;-69
2022/11/24 15:54:15;;;;;;;185.63;70.33;;;;;;;2.66;100.00;100478.19;5133320;56;1143240;-66
2022/11/24 15:59:21;;;;;;;258.50;97.43;;;;;;;2.61;100.00;100470.55;5150087;55;1143280;-68
2022/11/24 16:04:27;;;;;;;196.80;76.73;;;;;;;2.62;100.00;100469.64;5124597;55;1142987;-66
2022/11/24 16:09:32;;;;;;;185.33;73.90;;;;;;;2.62;100.00;100478.77;5060754;56;1143516;-68
2022/11/24 16:14:38;;;;;;;182.87;69.97;;;;;;;2.63;100.00;100482.23;5147283;56;1143261;-66
2022/11/24 16:19:44;;;;;;;189.50;72.87;;;;;;;2.63;100.00;100486.16;5152022;56;1143140;-68
2022/11/24 16:24:51;;;;;;;174.07;62.40;;;;;;;2.60;100.00;100485.02;5145682;56;1150945;-68
2022/11/24 16:29:56;;;;;;;175.87;69.07;;;;;;;2.61;100.00;100481.45;5092073;55;1142978;-68
2022/11/24 16:35:02;;;;;;;168.10;65.27;;;;;;;2.70;100.00;100494.11;5144998;55;1145023;-67
2022/11/24 16:40:09;;;;;;;349.47;115.57;;;;;;;2.76;100.00;100489.89;5154821;56;1142960;-65
2022/11/24 16:45:15;;;;;;;421.07;132.37;;;;;;;2.66;100.00;100495.16;5149161;55;1145166;-66
2022/11/24 16:50:20;;;;;;;316.40;103.90;;;;;;;2.60;100.00;100500.19;5149985;56;1145294;-64
2022/11/24 16:55:26;;;;;;;292.13;110.40;;;;;;;2.54;100.00;100510.08;5138152;55;1145093;-67
2022/11/24 17:00:32;;;;;;;194.83;74.70;;;;;;;2.51;100.00;100516.27;5137084;55;1145099;-65
2022/11/24 17:05:37;;;;;;;168.47;62.10;;;;;;;2.45;100.00;100517.38;5150613;56;1142933;-67
2022/11/24 17:10:43;;;;;;;156.33;56.97;;;;;;;2.42;100.00;100520.61;5141761;55;1143033;-66
2022/11/24 17:15:49;;;;;;;131.63;47.50;;;;;;;2.37;100.00;100526.48;5125221;56;1145211;-66
2022/11/24 17:20:59;;;;;;;137.07;50.77;;;;;;;2.37;100.00;100526.48;5126615;56;1143358;-68
2022/11/24 17:26:08;;;;;;;139.07;52.40;;;;;;;2.28;100.00;100537.33;5117007;56;1143485;-68
2022/11/24 17:31:28;;;;;;;151.00;56.60;;;;;;;2.27;100.00;100538.23;5092691;55;1142985;-68
2022/11/24 17:36:34;;;;;;;154.97;59.15;;;;;;;2.29;100.00;100544.25;5108980;56;1143125;-66
2022/11/24 17:41:40;;;;;;;193.70;76.73;;;;;;;2.32;100.00;100550.61;5116259;56;1145174;-69
2022/11/24 17:46:48;;;;;;;163.93;62.80;;;;;;;2.38;100.00;100559.04;5122082;56;1142975;-68
2022/11/24 17:51:53;;;;;;;147.33;56.70;;;;;;;2.32;100.00;100557.98;5113944;56;1143009;-69
2022/11/24 17:56:59;;;;;;;167.80;56.18;;;;;;;2.31;100.00;100565.87;5121429;56;1143104;-66
2022/11/24 18:02:04;;;;;;;160.67;56.60;;;;;;;2.30;100.00;100569.40;5105725;56;1143092;-69
2022/11/24 18:07:10;;;;;;;138.63;51.27;;;;;;;2.30;100.00;100564.17;5103340;55;1142865;-69
2022/11/24 18:12:16;;;;;;;146.90;54.67;;;;;;;2.34;100.00;100567.05;5116625;55;1142959;-69
2022/11/24 18:17:22;;;;;;;141.40;54.13;;;;;;;2.38;100.00;100577.77;5136627;56;1145247;-67
2022/11/24 18:22:28;;;;;;;164.97;58.10;;;;;;;2.33;100.00;100564.05;5151049;56;1143078;-66
2022/11/24 18:27:34;;;;;;;154.43;59.40;;;;;;;2.29;100.00;100576.37;5145523;55;1142854;-66
2022/11/24 18:32:40;;;;;;;182.00;64.43;;;;;;;2.37;100.00;100587.81;5146614;55;1142804;-65
2022/11/24 18:37:46;;;;;;;168.33;62.20;;;;;;;2.43;100.00;100594.94;5152265;55;1142822;-66
2022/11/24 18:42:52;;;;;;;159.20;54.77;;;;;;;2.41;100.00;100592.84;5102101;55;1143081;-67
2022/11/24 18:47:58;;;;;;;147.28;54.93;;;;;;;2.47;100.00;100593.87;5088985;55;1142901;-66
2022/11/24 18:53:03;;;;;;;133.05;50.38;;;;;;;2.49;100.00;100593.80;5154419;56;1144944;-65
2022/11/24 18:58:09;;;;;;;148.03;54.00;;;;;;;2.53;100.00;100599.75;5147906;55;1143125;-67
2022/11/24 19:03:14;;;;;;;134.10;51.03;;;;;;;2.58;100.00;100593.42;5153833;55;1143058;-65
2022/11/24 19:08:21;;;;;;;152.30;52.83;;;;;;;2.50;100.00;100608.55;5145790;56;1143135;-66
2022/11/24 19:13:27;;;;;;;139.60;51.30;;;;;;;2.45;100.00;100602.67;5081321;56;1143025;-67
2022/11/24 19:18:32;;;;;;;148.15;53.50;;;;;;;2.43;100.00;100607.98;5132007;56;1143007;-66
2022/11/24 19:23:38;;;;;;;167.70;62.47;;;;;;;2.47;100.00;100609.53;5147975;56;1145231;-69
2022/11/24 19:28:44;;;;;;;198.43;74.70;;;;;;;2.62;100.00;100613.23;5150678;56;1143276;-67
2022/11/24 19:33:51;;;;;;;213.40;81.30;;;;;;;2.72;100.00;100606.72;5127775;56;1223834;-67
2022/11/24 19:38:59;;;;;;;308.73;113.83;;;;;;;2.78;100.00;100612.11;5138768;56;1143076;-67
2022/11/24 19:44:05;;;;;;;259.02;95.12;;;;;;;2.82;100.00;100615.84;5149326;56;1145038;-63
2022/11/24 19:49:10;;;;;;;373.70;124.33;;;;;;;2.87;100.00;100620.87;5152999;56;1142986;-68
2022/11/24 19:54:16;;;;;;;246.50;91.03;;;;;;;2.92;100.00;100616.72;5066237;57;1147148;-67
2022/11/24 19:59:25;;;;;;;269.90;100.60;;;;;;;2.87;100.00;100620.87;5152974;56;1143289;-64
2022/11/24 20:04:31;;;;;;;175.97;69.20;;;;;;;2.80;100.00;100619.42;5138790;56;1145268;-63
2022/11/24 20:09:36;;;;;;;164.83;62.60;;;;;;;2.73;100.00;100625.39;5117206;56;1142943;-68
2022/11/24 20:14:42;;;;;;;176.53;64.63;;;;;;;2.70;100.00;100629.44;5116141;55;1145317;-65
2022/11/24 20:19:48;;;;;;;167.70;65.07;;;;;;;2.69;100.00;100639.95;5118400;56;1143306;-65
2022/11/24 20:24:54;;;;;;;162.17;66.40;;;;;;;2.63;100.00;100636.28;5118231;56;1177206;-66
2022/11/24 20:29:59;;;;;;;146.53;59.58;;;;;;;2.59;100.00;100630.83;5102584;55;1143225;-66
2022/11/24 20:35:05;;;;;;;141.77;55.57;;;;;;;2.59;100.00;100634.74;5114602;56;1143030;-66
2022/11/24 20:40:12;;;;;;;145.97;56.70;;;;;;;2.62;100.00;100630.21;5054752;56;1145156;-69
2022/11/24 20:45:17;;;;;;;147.07;55.67;;;;;;;2.56;100.00;100635.72;5060350;55;1143054;-64
2022/11/24 20:50:23;;;;;;;147.30;54.03;;;;;;;2.53;100.00;100633.23;5128701;56;1143177;-67
2022/11/24 20:55:30;;;;;;;142.93;54.87;;;;;;;2.55;100.00;100642.30;5075062;56;1142988;-64
2022/11/24 21:00:36;;;;;;;148.77;57.83;;;;;;;2.58;100.00;100639.11;5056538;55;1145389;-67
2022/11/24 21:05:41;;;;;;;279.50;92.77;;;;;;;2.63;100.00;100639.74;5054165;56;1145223;-67
2022/11/24 21:10:56;;;;;;;219.60;80.67;;;;;;;2.66;100.00;100632.23;5065421;56;1143049;-67
2022/11/24 21:16:21;;;;;;;254.47;87.33;;;;;;;2.69;100.00;100634.27;5055304;56;1142961;-66
2022/11/24 21:21:37;;;;;;;196.13;71.20;;;;;;;2.62;100.00;100640.66;5096552;55;1143186;-67
2022/11/24 21:26:40;;;;;;;151.63;57.67;;;;;;;2.54;100.00;100644.52;4985736;58;1142991;-69
2022/11/24 21:31:46;;;;;;;133.53;50.90;;;;;;;2.46;100.00;100644.37;5096515;55;1143043;-67
2022/11/24 21:36:52;;;;;;;146.13;54.93;;;;;;;2.42;100.00;100641.52;5101884;56;1145048;-65
2022/11/24 21:41:57;;;;;;;142.87;54.83;;;;;;;2.43;100.00;100646.29;5146211;56;1154764;-67
2022/11/24 21:47:04;;;;;;;162.18;57.93;;;;;;;2.42;100.00;100645.44;5146219;56;1143213;-65
2022/11/24 21:52:09;;;;;;;152.25;58.98;;;;;;;2.40;100.00;100655.09;5146405;56;1143255;-64
2022/11/24 21:57:15;;;;;;;144.87;54.90;;;;;;;2.37;100.00;100655.67;5146167;56;1142911;-65
2022/11/24 22:02:21;;;;;;;137.90;51.80;;;;;;;2.35;100.00;100662.25;5146291;56;1142926;-69
2022/11/24 22:07:31;;;;;;;154.17;54.10;;;;;;;2.39;100.00;100659.06;5069975;56;1142815;-65
2022/11/24 22:12:37;;;;;;;142.70;54.87;;;;;;;2.44;100.00;100660.55;5069952;56;1145239;-66
2022/11/24 22:17:43;;;;;;;145.50;60.67;;;;;;;2.45;100.00;100666.17;5077301;56;1142895;-68
2022/11/24 22:22:48;;;;;;;143.97;50.57;;;;;;;2.43;100.00;100668.02;5155265;56;1142990;-64
2022/11/24 22:27:55;;;;;;;157.15;55.33;;;;;;;2.38;100.00;100672.58;5139049;56;1142975;-66
2022/11/24 22:33:01;;;;;;;128.70;50.58;;;;;;;2.38;100.00;100674.33;5132937;56;1142859;-66
2022/11/24 22:38:06;;;;;;;133.63;52.07;;;;;;;2.39;100.00;100678.19;5141988;56;1143087;-68
2022/11/24 22:43:13;;;;;;;127.17;48.70;;;;;;;2.45;100.00;100680.98;5142378;56;1145129;-65